Marengo, Indiana
Current Conditions -  °F | °C
As of 1:35 PM on Sunday 23 Nov 2014 (Local Time) from KHNB Reporting Station
Overcast Overcast  
Wind Chill: 54°   Ceiling: 2400
Heat Index: 54°   Visibility: 9mi
Dew Point: 50°   Wind: 7mph
Humidity: 88%   Direction: 130°SE
Pressure: 29.63"   Gusts: NA
Location:  38.37°N, 86.34°W
Report Text: KHNB 231835Z AUTO 13006KT 9SM BKN024 OVC034 12/10 A2963 RMK AO1
Loading
Personal Weather Stations






























Interactive Weather Map New forecast layout! Learn more

10-Day Weather Forecast

Advertisements
Track Severe Weather on mobile